createdAt,value
2018-08-25T00:00:23.976Z,18.20
2018-08-25T00:02:52.036Z,18.20
2018-08-25T00:05:20.223Z,18.20
2018-08-25T00:07:48.287Z,18.20
2018-08-25T00:10:16.372Z,18.30
2018-08-25T00:12:44.418Z,18.30
2018-08-25T00:15:12.542Z,18.30
2018-08-25T00:17:40.679Z,18.30
2018-08-25T00:20:08.860Z,18.30
2018-08-25T00:22:37.034Z,18.30
2018-08-25T00:25:05.291Z,18.30
2018-08-25T00:27:33.351Z,18.30
2018-08-25T00:30:01.442Z,18.30
2018-08-25T00:32:29.491Z,18.30
2018-08-25T00:34:57.701Z,18.20
2018-08-25T00:37:25.728Z,18.10
2018-08-25T00:39:53.817Z,18.10
2018-08-25T00:42:21.987Z,18.10
2018-08-25T00:44:50.177Z,18.10
2018-08-25T00:47:18.451Z,18.10
2018-08-25T00:49:46.506Z,18.20
2018-08-25T00:52:14.583Z,18.30
2018-08-25T00:54:42.767Z,18.30
2018-08-25T00:57:10.941Z,18.20
2018-08-25T00:59:39.045Z,18.20
2018-08-25T01:02:07.265Z,18.10
2018-08-25T01:04:35.339Z,18.10
2018-08-25T01:07:03.494Z,18.10
2018-08-25T01:09:31.760Z,18.10
2018-08-25T01:11:59.982Z,18.10
2018-08-25T01:14:28.259Z,18.00
2018-08-25T01:16:56.392Z,18.00
2018-08-25T01:19:24.447Z,18.00
2018-08-25T01:21:52.693Z,18.10
2018-08-25T01:24:20.948Z,18.00
2018-08-25T01:26:49.019Z,18.10
2018-08-25T01:29:17.064Z,18.10
2018-08-25T01:31:45.127Z,18.10
2018-08-25T01:34:13.233Z,18.10
2018-08-25T01:36:41.507Z,18.10
2018-08-25T01:39:09.955Z,18.20
2018-08-25T01:41:38.126Z,18.10
2018-08-25T01:44:06.219Z,18.20
2018-08-25T01:46:34.252Z,18.10
2018-08-25T01:49:02.763Z,17.90
2018-08-25T01:51:30.852Z,18.00
2018-08-25T01:53:58.925Z,17.80
2018-08-25T01:56:26.949Z,17.80
2018-08-25T01:58:55.173Z,17.80
2018-08-25T02:01:23.444Z,17.80
2018-08-25T02:03:51.580Z,17.70
2018-08-25T02:06:19.796Z,17.80
2018-08-25T02:08:47.860Z,17.90
2018-08-25T02:11:15.934Z,17.90
2018-08-25T02:13:44.014Z,17.90
2018-08-25T02:16:12.168Z,17.90
2018-08-25T02:18:40.437Z,17.90
2018-08-25T02:21:08.537Z,18.00
2018-08-25T02:23:36.900Z,18.00
2018-08-25T02:26:05.231Z,18.00
2018-08-25T02:28:33.340Z,17.90
2018-08-25T02:31:01.534Z,17.90
2018-08-25T02:33:29.598Z,17.90
2018-08-25T02:35:57.622Z,17.90
2018-08-25T02:38:25.849Z,17.90
2018-08-25T02:40:53.930Z,17.90
2018-08-25T02:43:22.184Z,17.90
2018-08-25T02:45:50.255Z,17.90
2018-08-25T02:48:18.431Z,17.90
2018-08-25T02:50:46.524Z,17.90
2018-08-25T02:53:14.721Z,17.90
2018-08-25T02:55:42.945Z,17.90
2018-08-25T02:58:11.016Z,17.90
2018-08-25T03:00:39.104Z,17.90
2018-08-25T03:03:08.288Z,17.90
2018-08-25T03:05:36.388Z,17.80
2018-08-25T03:08:04.592Z,17.80
2018-08-25T03:10:32.810Z,17.80
2018-08-25T03:13:00.865Z,17.80
2018-08-25T03:15:29.055Z,17.80
2018-08-25T03:17:57.132Z,17.70
2018-08-25T03:20:25.332Z,17.80
2018-08-25T03:22:53.474Z,17.80
2018-08-25T03:25:21.538Z,17.90
2018-08-25T03:27:49.711Z,17.80
2018-08-25T03:30:18.048Z,17.80
2018-08-25T03:32:46.264Z,17.90
2018-08-25T03:35:14.338Z,17.80
2018-08-25T03:37:42.396Z,17.90
2018-08-25T03:40:10.576Z,17.90
2018-08-25T03:42:38.752Z,17.80
2018-08-25T03:45:06.935Z,17.80
2018-08-25T03:47:35.009Z,17.80
2018-08-25T03:50:03.168Z,17.70
2018-08-25T03:52:31.227Z,17.70
2018-08-25T03:54:59.417Z,17.60
2018-08-25T03:57:27.584Z,17.60
2018-08-25T03:59:55.756Z,17.60
2018-08-25T04:02:24.096Z,17.60
2018-08-25T04:04:52.308Z,17.70
2018-08-25T04:07:20.370Z,17.70
2018-08-25T04:09:48.555Z,17.80
2018-08-25T04:12:16.727Z,17.80
2018-08-25T04:14:44.804Z,17.80
2018-08-25T04:17:12.863Z,17.80
2018-08-25T04:19:41.041Z,17.70
2018-08-25T04:22:09.237Z,17.70
2018-08-25T04:24:37.382Z,17.70
2018-08-25T04:27:05.421Z,17.70
2018-08-25T04:32:01.239Z,17.60
2018-08-25T04:34:29.466Z,17.60
2018-08-25T04:36:57.537Z,17.60
2018-08-25T04:39:25.608Z,17.60
2018-08-25T04:41:53.782Z,17.70
2018-08-25T04:44:21.940Z,17.60
2018-08-25T04:46:49.999Z,17.60
2018-08-25T04:49:18.198Z,17.50
2018-08-25T04:51:46.372Z,17.40
2018-08-25T04:54:14.576Z,17.30
2018-08-25T04:56:42.781Z,17.20
2018-08-25T04:59:10.859Z,17.40
2018-08-25T05:01:38.951Z,17.50
2018-08-25T05:04:07.038Z,17.50
2018-08-25T05:06:35.212Z,17.50
2018-08-25T05:09:04.656Z,17.60
2018-08-25T05:11:32.768Z,17.60
2018-08-25T05:14:00.853Z,17.50
2018-08-25T05:16:29.025Z,17.50
2018-08-25T05:18:57.214Z,17.40
2018-08-25T05:21:25.327Z,17.40
2018-08-25T05:23:53.618Z,17.40
2018-08-25T05:26:21.738Z,17.40
2018-08-25T05:28:49.791Z,17.60
2018-08-25T05:31:18.176Z,17.50
2018-08-25T05:33:46.252Z,17.50
2018-08-25T05:36:14.360Z,17.50
2018-08-25T05:38:42.481Z,17.50
2018-08-25T05:41:10.657Z,17.50
2018-08-25T05:43:38.803Z,17.60
2018-08-25T05:46:07.104Z,17.60
2018-08-25T05:48:35.173Z,17.60
2018-08-25T05:51:03.348Z,17.60
2018-08-25T05:53:31.521Z,17.60
2018-08-25T05:55:59.522Z,17.50
2018-08-25T05:58:27.658Z,17.50
2018-08-25T06:00:55.733Z,17.50
2018-08-25T06:03:24.163Z,17.50
2018-08-25T06:05:52.242Z,17.50
2018-08-25T06:08:20.465Z,17.50
2018-08-25T06:10:48.500Z,17.50
2018-08-25T06:13:16.644Z,17.50
2018-08-25T06:15:44.765Z,17.50
2018-08-25T06:18:12.819Z,17.60
2018-08-25T06:20:40.918Z,17.60
2018-08-25T06:23:09.190Z,17.60
2018-08-25T06:25:37.287Z,17.50
2018-08-25T06:28:05.542Z,17.50
2018-08-25T06:30:33.716Z,17.60
2018-08-25T06:33:01.830Z,17.60
2018-08-25T06:35:29.967Z,17.60
2018-08-25T06:37:58.147Z,17.70
2018-08-25T06:40:26.418Z,17.70
2018-08-25T06:42:54.577Z,17.90
2018-08-25T06:45:22.872Z,17.90
2018-08-25T06:47:50.927Z,17.90
2018-08-25T06:50:19.095Z,17.90
2018-08-25T06:52:47.269Z,17.90
2018-08-25T06:55:15.541Z,17.90
2018-08-25T06:57:43.820Z,18.00
2018-08-25T07:00:12.001Z,18.00
2018-08-25T07:02:40.063Z,17.90
2018-08-25T07:05:08.163Z,17.90
2018-08-25T07:07:36.718Z,17.90
2018-08-25T07:10:04.780Z,18.00
2018-08-25T07:12:33.065Z,18.00
2018-08-25T07:15:01.237Z,17.90
2018-08-25T07:17:29.275Z,17.80
2018-08-25T07:19:57.480Z,17.80
2018-08-25T07:22:25.655Z,17.80
2018-08-25T07:24:53.931Z,17.80
2018-08-25T07:27:21.945Z,17.80
2018-08-25T07:29:50.158Z,17.80
2018-08-25T07:32:18.347Z,17.80
2018-08-25T07:34:46.285Z,17.90
2018-08-25T07:37:14.395Z,17.90
2018-08-25T07:39:42.428Z,17.90
2018-08-25T07:42:10.491Z,17.80
2018-08-25T07:44:38.671Z,17.90
2018-08-25T07:47:06.820Z,17.90
2018-08-25T07:49:35.070Z,17.90
2018-08-25T07:52:03.084Z,17.80
2018-08-25T07:54:31.286Z,17.90
2018-08-25T07:56:59.384Z,17.90
2018-08-25T07:59:27.497Z,17.90
2018-08-25T08:01:55.806Z,17.90
2018-08-25T08:04:23.938Z,17.90
2018-08-25T08:06:52.056Z,17.90
2018-08-25T08:09:20.090Z,17.90
2018-08-25T08:11:48.214Z,17.90
2018-08-25T08:14:16.376Z,17.90
2018-08-25T08:16:44.408Z,17.90
